M I D A S
Marine Information and Data Acquisition System
Tripno 518 of the Zeeleeuw from 2003-06-18 07:52:01 to 2003-06-18 13:06:49
Back to CruiseResearch ActivitiesStationsMapUnderway DataData graphs

EquipmentUnitsComment
TimeDGPSUTC
LatitudeDGPSDM.mWGS84
LongitudeDGPSDM.mWGS84
TemperatureSBE03/SBE38deg celciusITS90
ConductivitySBE21S/mITS90
SalinitySBE21 Practical Salinity Units
ChlorophylAChelsea fluorimeterg/lCalibrated in Aceton
Missing or incorrect values are displayed as -999
Sea surface data collected by the RV Zeeleeuw from 2003-06-18 07:52:01 to 2003-06-18 13:06:49
Time Latitude Longitude Temperature Conductivity Salinity ChlorophylA
2003-06-18 07:53:03 51°14.28 2°55.22 43.913756 3.920383 28.166722 17.219571
2003-06-18 07:54:03 51°14.39 2°54.98 44.115924 3.846489 27.559702 16.74764
2003-06-18 07:55:03 51°14.49 2°54.7 42.770227 3.97921 28.706376 16.781349
2003-06-18 07:56:03 51°14.6 2°54.41 42.408587 4.274257 31.255196 16.612802
2003-06-18 07:57:03 51°14.7 2°54.12 42.555317 4.43459 32.744992 17.489247
2003-06-18 07:58:03 51°14.82 2°53.81 41.644369 4.481326 33.231746 14.152016
2003-06-18 07:59:03 51°14.93 2°53.5 41.401961 4.50939 33.584086 9.870922
2003-06-18 08:00:03 51°15.05 2°53.18 41.857459 4.491669 33.586537 7.612392
2003-06-18 08:01:03 51°15.17 2°52.85 41.359647 4.50338 33.69689 7.511264
2003-06-18 08:02:03 51°15.29 2°52.52 40.484479 4.492724 33.563806 8.320289
2003-06-18 08:03:03 51°15.4 2°52.19 41.602971 4.484494 33.43338 8.82593
2003-06-18 08:04:03 51°15.52 2°51.86 41.880693 4.483755 33.404031 8.252871
2003-06-18 08:05:03 51°15.58 2°51.5 41.845307 4.485337 33.413748 9.095606
2003-06-18 08:06:03 51°15.59 2°51.11 41.134726 4.481856 33.398625 9.061896
2003-06-18 08:07:03 51°15.58 2°50.72 41.467971 4.485865 33.44076 9.500118
2003-06-18 08:08:03 51°15.57 2°50.33 19.294605 4.494305 33.525727 8.960768
2003-06-18 08:09:03 51°15.52 2°49.94 19.042079 4.508655 33.732849 7.848358
2003-06-18 08:10:03 51°15.46 2°49.56 18.953128 4.510238 33.796741 6.230306
2003-06-18 08:11:03 51°15.4 2°49.18 18.899423 4.512876 33.853136 5.387571
2003-06-18 08:12:03 51°15.33 2°48.81 18.585697 4.512982 33.891332 4.679674
2003-06-18 08:13:03 51°15.26 2°48.43 18.863117 4.518891 33.982637 3.938067
2003-06-18 08:14:03 51°15.2 2°48.05 18.733528 4.521424 34.030198 3.870648
2003-06-18 08:15:01 51°15.13 2°47.69 18.800453 4.520054 34.096397 3.061623
2003-06-18 08:15:57 51°15.07 2°47.35 18.277187 4.515729 34.140938 2.555982
2003-06-18 08:16:57 51°15.01 2°46.98 18.465891 4.503706 34.219678 1.982922
2003-06-18 08:17:57 51°14.93 2°46.61 18.28909 4.500436 34.222225 2.050341
2003-06-18 08:18:57 51°14.86 2°46.25 18.396657 4.498748 34.232791 2.050341
2003-06-18 08:19:57 51°14.79 2°45.88 18.252547 4.495267 34.243931 1.848084
2003-06-18 08:20:57 51°14.71 2°45.51 18.238273 4.493263 34.25856 1.645828
2003-06-18 08:21:57 51°14.64 2°45.14 18.312432 4.486724 34.280966 1.578409
2003-06-18 08:22:57 51°14.56 2°44.77 18.344303 4.482821 34.263498 1.578409
2003-06-18 08:23:57 51°14.49 2°44.4 18.138315 4.48261 34.262918 1.612118
2003-06-18 08:24:57 51°14.42 2°44.02 18.110881 4.480078 34.247988 1.848084
2003-06-18 08:25:57 51°14.37 2°43.64 18.250057 4.482821 34.265337 2.151469
2003-06-18 08:26:57 51°14.32 2°43.27 17.971258 4.481871 34.257823 1.982922
2003-06-18 08:27:57 51°14.28 2°42.97 18.01815 4.480922 34.258277 1.443571
2003-06-18 08:28:57 51°14.25 2°42.74 18.189454 4.478918 34.259509 1.409862
2003-06-18 08:29:57 51°14.22 2°42.55 18.093376 4.477335 34.24657 1.342443
2003-06-18 08:30:57 51°14.19 2°42.38 18.087387 4.47955 34.217153 1.612118
2003-06-18 08:31:57 51°14.16 2°42.22 18.13952 4.491787 34.258166 1.376153
2003-06-18 08:32:57 51°14.14 2°42.05 18.432048 4.493791 34.265507 1.342443
2003-06-18 08:33:57 51°14.11 2°41.88 18.253874 4.493369 34.247861 1.308734
2003-06-18 08:34:57 51°14.06 2°41.67 18.12489 4.495479 34.26648 1.275024
2003-06-18 08:35:57 51°14.03 2°41.45 18.142304 4.493686 34.279275 1.51099
2003-06-18 08:36:57 51°14.02 2°41.23 18.250763 4.489994 34.280148 1.5447
2003-06-18 08:37:57 51°14.07 2°41.13 18.051862 4.486618 34.2519 1.275024
2003-06-18 08:38:57 51°14.11 2°41.15 18.321551 4.489678 34.290915 1.409862
2003-06-18 08:39:57 51°14.11 2°41.18 17.936757 4.489994 34.284434 1.376153
2003-06-18 08:40:57 51°14.11 2°41.2 18.377774 4.490732 34.285237 1.578409
2003-06-18 08:41:57 51°14.11 2°41.21 18.10215 4.494002 34.283813 1.51099
2003-06-18 08:42:57 51°14.12 2°41.21 18.12701 4.491154 34.280887 1.645828
2003-06-18 08:43:57 51°14.12 2°41.21 18.363526 4.492947 34.283363 1.578409
2003-06-18 08:44:57 51°14.12 2°41.2 18.335352 4.492631 34.283718 1.612118
2003-06-18 08:45:57 51°14.13 2°41.19 18.479043 4.493264 34.277505 1.578409
2003-06-18 08:46:57 51°14.13 2°41.18 18.144382 4.494319 34.276122 1.645828
2003-06-18 08:47:57 51°14.14 2°41.17 18.277809 4.494213 34.278278 1.679537
2003-06-18 08:48:57 51°14.14 2°41.16 18.26968 4.495479 34.270144 1.814375
2003-06-18 08:49:57 51°14.15 2°41.15 18.171678 4.496112 34.263945 1.881794
2003-06-18 08:50:57 51°14.16 2°41.14 18.040876 4.498854 34.275141 1.915503
2003-06-18 08:51:57 51°14.16 2°41.13 18.066756 4.499065 34.273279 1.982922
2003-06-18 08:52:57 51°14.17 2°41.12 18.304846 4.498221 34.276455 2.016631
2003-06-18 08:53:57 51°14.17 2°41.11 18.297507 4.497483 34.268323 1.949212
2003-06-18 08:54:57 51°14.17 2°41.09 18.263997 4.495268 34.268954 2.050341
2003-06-18 08:55:57 51°14.17 2°41.07 18.480738 4.49569 34.271945 2.117759
2003-06-18 08:56:57 51°14.18 2°41.06 18.528692 4.496534 34.266936 2.050341
2003-06-18 08:57:57 51°14.18 2°41.04 18.329882 4.497799 34.269802 2.016631
2003-06-18 08:58:57 51°14.19 2°41.02 18.218392 4.497694 34.267682 1.814375
2003-06-18 08:59:57 51°14.21 2°41 18.506786 4.497905 34.270092 1.746956
2003-06-18 09:00:57 51°14.22 2°40.99 18.397775 4.495373 34.247881 1.848084
2003-06-18 09:01:57 51°14.24 2°40.98 18.327022 4.498221 34.26852 2.050341
2003-06-18 09:02:57 51°14.26 2°40.96 18.167524 4.497483 34.26039 2.151469
2003-06-18 09:03:57 51°14.27 2°40.95 18.404647 4.498854 34.264768 2.185178
2003-06-18 09:04:57 51°14.3 2°40.95 18.290292 4.490731 34.192453 2.08405
2003-06-18 09:05:57 51°14.41 2°40.86 18.177451 4.498221 34.253272 2.016631
2003-06-18 09:06:57 51°14.61 2°40.75 18.323665 4.496956 34.272979 2.050341
2003-06-18 09:07:57 51°14.82 2°40.66 18.020273 4.487989 34.255672 1.848084
2003-06-18 09:08:57 51°15.04 2°40.57 17.98313 4.486408 34.292971 1.713247
2003-06-18 09:09:57 51°15.26 2°40.5 17.830268 4.478286 34.324774 1.578409
2003-06-18 09:10:57 51°15.47 2°40.55 18.177825 4.473433 34.265296 1.780665
2003-06-18 09:11:57 51°15.69 2°40.63 18.064552 4.481028 34.299074 1.679537
2003-06-18 09:12:57 51°15.9 2°40.71 18.004494 4.482927 34.30613 1.612118
2003-06-18 09:13:57 51°16.11 2°40.79 18.366923 4.483032 34.302733 1.578409
2003-06-18 09:14:57 51°16.32 2°40.87 18.306131 4.484087 34.317303 1.443571
2003-06-18 09:15:57 51°16.51 2°40.89 18.038753 4.485986 34.304698 1.376153
2003-06-18 09:16:57 51°16.67 2°40.87 18.140476 4.489783 34.297332 1.342443
2003-06-18 09:17:57 51°16.82 2°40.8 18.269099 4.491049 34.278149 1.645828
2003-06-18 09:18:57 51°16.95 2°40.85 18.166901 4.490099 34.241919 2.08405
2003-06-18 09:19:57 51°17.05 2°40.95 18.325655 4.4863 34.180234 2.185178
2003-06-18 09:20:57 51°17.1 2°41.03 18.307996 4.483557 34.144064 2.387435
2003-06-18 09:21:57 51°17.16 2°41.11 18.326857 4.478177 34.088483 2.320016
2003-06-18 09:22:57 51°17.2 2°41.16 18.305219 4.476594 34.062872 2.218888
2003-06-18 09:23:57 51°17.23 2°41.2 18.620869 4.475222 34.038472 2.252597
2003-06-18 09:24:57 51°17.25 2°41.22 18.285855 4.474906 34.027306 2.387435
2003-06-18 09:25:57 51°17.26 2°41.23 18.062679 4.474694 34.018857 2.522272
2003-06-18 09:26:57 51°17.28 2°41.23 18.309903 4.476066 34.017832 2.589691
2003-06-18 09:27:57 51°17.29 2°41.23 18.487809 4.475222 34.007631 2.791947
2003-06-18 09:28:57 51°17.29 2°41.23 18.220634 4.474272 33.990497 2.690819
2003-06-18 09:29:59 51°17.31 2°41.24 18.565503 4.472479 33.970419 2.589691
2003-06-18 09:30:57 51°17.31 2°41.26 18.367751 4.472478 33.966801 2.454853
2003-06-18 09:31:57 51°17.32 2°41.27 18.405682 4.473955 33.973929 2.421144
2003-06-18 09:32:57 51°17.33 2°41.27 18.556457 4.474272 33.969384 2.555982
2003-06-18 09:33:59 51°17.33 2°41.27 18.353252 4.474588 33.963636 2.589691
2003-06-18 09:34:57 51°17.34 2°41.26 18.565296 4.474271 33.959742 2.589691
2003-06-18 09:35:57 51°17.34 2°41.24 18.534105 4.47501 33.960594 2.589691
2003-06-18 09:36:57 51°17.35 2°41.23 18.49918 4.473427 33.944142 2.589691
2003-06-18 09:37:59 51°17.35 2°41.22 18.53832 4.472372 33.934579 2.522272
2003-06-18 09:38:57 51°17.35 2°41.2 18.400176 4.472794 33.937561 2.522272
2003-06-18 09:39:57 51°17.34 2°41.18 18.459727 4.472056 33.92768 2.286306
2003-06-18 09:40:57 51°17.33 2°41.16 18.558853 4.474482 33.920621 2.185178
2003-06-18 09:41:57 51°17.32 2°41.14 18.390943 4.47733 33.93097 2.185178
2003-06-18 09:42:57 51°17.31 2°41.12 18.552904 4.47733 33.928568 2.252597
2003-06-18 09:43:57 51°17.31 2°41.11 18.504223 4.476064 33.930444 2.488563
2003-06-18 09:44:57 51°17.31 2°41.09 18.399969 4.474587 33.92392 2.6234
2003-06-18 09:45:57 51°17.32 2°41.08 18.436227 4.474271 33.922436 2.589691
2003-06-18 09:46:57 51°17.33 2°41.08 18.498973 4.473321 33.911375 2.522272
2003-06-18 09:47:59 51°17.33 2°41.09 18.475362 4.473321 33.887965 2.421144
2003-06-18 09:48:57 51°17.32 2°41.11 18.408249 4.47427 33.888819 2.522272
2003-06-18 09:49:57 51°17.31 2°41.14 18.585161 4.473215 33.878676 2.589691
2003-06-18 09:50:57 51°17.28 2°41.17 18.310484 4.474587 33.882509 2.589691
2003-06-18 09:51:59 51°17.25 2°41.2 18.749967 4.474165 33.879532 2.6234
2003-06-18 09:52:57 51°17.21 2°41.23 18.471557 4.474903 33.888189 2.589691
2003-06-18 09:53:57 51°17.19 2°41.3 18.498435 4.474692 33.894196 2.6234
2003-06-18 09:54:57 51°17.21 2°41.35 18.596102 4.475642 33.911848 2.454853
2003-06-18 09:55:59 51°17.26 2°41.43 18.531709 4.476275 33.914215 2.421144
2003-06-18 09:56:57 51°17.34 2°41.56 18.572689 4.476169 33.91152 2.522272
2003-06-18 09:57:57 51°17.45 2°41.67 18.575374 4.47522 33.898068 2.555982
2003-06-18 09:58:57 51°17.57 2°41.79 18.378147 4.474587 33.889103 2.791947
2003-06-18 09:59:59 51°17.68 2°41.9 18.72096 4.474797 33.878904 2.960494
2003-06-18 10:00:57 51°17.79 2°42.02 18.83173 4.473848 33.842131 3.331298
2003-06-18 10:01:57 51°17.89 2°42.15 18.492358 4.470577 33.805484 3.331298
2003-06-18 10:02:57 51°18 2°42.28 18.440945 4.46604 33.743852 3.365007
2003-06-18 10:03:57 51°18.1 2°42.41 18.70975 4.462769 33.65741 3.904358
2003-06-18 10:04:57 51°18.2 2°42.53 18.528113 4.456861 33.569727 3.904358
2003-06-18 10:05:57 51°18.28 2°42.64 18.609931 4.452008 33.515276 3.938067
2003-06-18 10:06:57 51°18.36 2°42.74 19.212564 4.449054 33.480981 3.870648
2003-06-18 10:07:57 51°18.44 2°42.83 18.661013 4.444307 33.444538 3.668392
2003-06-18 10:08:57 51°18.52 2°42.92 18.870479 4.437344 33.395314 3.297589
2003-06-18 10:09:57 51°18.57 2°43.01 18.673964 4.433863 33.359556 3.095332
2003-06-18 10:10:57 51°18.62 2°43.08 18.736248 4.428588 33.308727 2.724529
2003-06-18 10:11:57 51°18.65 2°43.15 18.763807 4.422048 33.258381 2.791947
2003-06-18 10:12:57 51°18.68 2°43.23 18.610096 4.419938 33.249395 2.791947
2003-06-18 10:13:57 51°18.71 2°43.31 18.426296 4.414453 33.218424 2.825657
2003-06-18 10:14:57 51°18.74 2°43.39 18.814488 4.409179 33.188628 2.758238
2003-06-18 10:15:57 51°18.77 2°43.46 18.670046 4.407492 33.183177 2.65711
2003-06-18 10:16:57 51°18.8 2°43.54 18.561414 4.405593 33.173611 2.724529
2003-06-18 10:17:57 51°18.83 2°43.62 18.758947 4.403694 33.163459 3.162751
2003-06-18 10:18:57 51°18.86 2°43.7 18.619424 4.401057 33.146502 3.263879
2003-06-18 10:19:57 51°18.89 2°43.76 18.374751 4.401901 33.158281 3.365007
2003-06-18 10:20:57 51°18.91 2°43.78 18.542039 4.401901 33.160617 3.297589
2003-06-18 10:21:57 51°18.92 2°43.79 18.499097 4.397893 33.130934 3.80323
2003-06-18 10:22:57 51°18.93 2°43.79 18.606257 4.396416 33.125496 3.76952
2003-06-18 10:23:57 51°18.94 2°43.79 18.541791 4.396521 33.121132 3.466136
2003-06-18 10:24:57 51°18.95 2°43.79 18.507778 4.396732 33.120576 3.297589
2003-06-18 10:25:59 51°18.95 2°43.79 18.473046 4.395467 33.111079 3.027913
2003-06-18 10:26:57 51°18.96 2°43.8 18.471516 4.395256 33.112802 2.859366
2003-06-18 10:27:57 51°18.96 2°43.8 19.006792 4.396521 33.121716 2.960494
2003-06-18 10:28:57 51°18.96 2°43.79 18.50567 4.393568 33.09975 2.960494
2003-06-18 10:29:57 51°18.96 2°43.78 18.509969 4.394412 33.101027 3.027913
2003-06-18 10:30:57 51°18.96 2°43.77 18.643399 4.394412 33.098695 2.893076
2003-06-18 10:31:59 51°18.96 2°43.75 18.680562 4.393779 33.09453 3.095332
2003-06-18 10:32:57 51°18.96 2°43.74 18.614017 4.394095 33.095447 3.027913
2003-06-18 10:33:57 51°18.97 2°43.78 18.472757 4.39399 33.09281 3.095332
2003-06-18 10:34:57 51°18.94 2°43.82 18.641295 4.393673 33.092476 2.893076
2003-06-18 10:35:57 51°18.9 2°43.82 18.601262 4.389981 33.066042 3.129042
2003-06-18 10:36:57 51°18.87 2°43.82 18.668066 4.391775 33.082894 3.398717
2003-06-18 10:37:59 51°18.84 2°43.81 18.628421 4.389665 33.065707 3.533554
2003-06-18 10:38:57 51°18.82 2°43.8 18.562075 4.392091 33.091973 3.600973
2003-06-18 10:39:59 51°18.79 2°43.8 18.455218 4.39304 33.096473 3.567264
2003-06-18 10:40:57 51°18.76 2°43.82 18.583385 4.391986 33.096334 3.904358
2003-06-18 10:41:57 51°18.72 2°43.82 18.551706 4.39515 33.124753 3.634683
2003-06-18 10:42:57 51°18.68 2°43.81 18.543361 4.397682 33.148428 3.668392
2003-06-18 10:43:57 51°18.65 2°43.78 18.442434 4.399265 33.169368 3.499845
2003-06-18 10:44:57 51°18.61 2°43.75 18.484377 4.403167 33.195257 3.19646
2003-06-18 10:45:57 51°18.59 2°43.71 18.651155 4.40475 33.206256 3.365007
2003-06-18 10:46:57 51°18.56 2°43.66 18.415286 4.406648 33.225195 3.567264
2003-06-18 10:47:57 51°18.54 2°43.62 18.516665 4.407281 33.22936 3.600973
2003-06-18 10:48:57 51°18.53 2°43.57 18.482103 4.407492 33.232311 3.668392
2003-06-18 10:49:59 51°18.52 2°43.52 18.827451 4.408231 33.235608 3.76952
2003-06-18 10:50:57 51°18.53 2°43.49 18.728048 4.408653 33.237995 3.836939
2003-06-18 10:51:57 51°18.55 2°43.48 18.625161 4.404328 33.196262 3.365007
2003-06-18 10:52:57 51°18.6 2°43.5 18.520178 4.403906 33.191535 3.162751
2003-06-18 10:53:59 51°18.72 2°43.59 18.385435 4.39726 33.140782 3.297589
2003-06-18 10:54:57 51°18.85 2°43.79 18.624665 4.394095 33.111777 3.76952
2003-06-18 10:55:57 51°19 2°44 18.524477 4.386817 33.045794 3.735811
2003-06-18 10:56:57 51°19.14 2°44.22 18.58706 4.386817 33.046959 3.80323
2003-06-18 10:57:57 51°19.28 2°44.44 18.478216 4.382492 33.016349 3.668392
2003-06-18 10:58:57 51°19.39 2°44.69 18.842592 4.380488 33.005866 3.634683
2003-06-18 10:59:57 51°19.47 2°44.98 18.637829 4.381121 33.015855 3.567264
2003-06-18 11:00:57 51°19.54 2°45.26 18.414541 4.380488 33.015179 3.634683
2003-06-18 11:01:59 51°19.61 2°45.56 18.371313 4.378062 33.011618 3.80323
2003-06-18 11:02:57 51°19.66 2°45.84 18.667406 4.375426 32.998703 3.735811
2003-06-18 11:03:57 51°19.69 2°46.14 18.53675 4.373632 32.987659 3.904358
2003-06-18 11:04:57 51°19.69 2°46.45 18.501577 4.369835 32.93994 4.207742
2003-06-18 11:05:57 51°19.71 2°46.74 18.835228 4.352534 32.685264 4.780802
2003-06-18 11:06:57 51°19.74 2°47.02 18.721867 4.347363 32.532752 4.34258
2003-06-18 11:07:57 51°19.81 2°47.26 19.01976 4.343987 32.44096 4.174033
2003-06-18 11:08:57 51°19.8 2°47.43 19.088624 4.34388 32.3627 4.34258
2003-06-18 11:09:57 51°19.82 2°47.51 18.867929 4.333543 32.271048 3.702101
2003-06-18 11:10:57 51°19.85 2°47.54 18.954771 4.330063 32.256685 3.466136
2003-06-18 11:11:57 51°19.86 2°47.57 19.048396 4.324683 32.218651 3.600973
2003-06-18 11:12:57 51°19.85 2°47.6 18.841234 4.321414 32.200973 3.904358
2003-06-18 11:13:57 51°19.83 2°47.62 18.980642 4.326688 32.239261 3.80323
2003-06-18 11:14:57 51°19.8 2°47.65 18.974032 4.326371 32.232697 3.702101
2003-06-18 11:15:57 51°19.82 2°47.71 18.962164 4.328797 32.254576 3.499845
2003-06-18 11:16:57 51°19.85 2°47.74 18.916686 4.32827 32.241762 3.263879
2003-06-18 11:17:57 51°19.87 2°47.73 18.778385 4.326582 32.236138 3.331298
2003-06-18 11:18:57 51°19.89 2°47.72 18.80922 4.326582 32.238945 3.567264
2003-06-18 11:19:57 51°19.9 2°47.69 19.08231 4.325844 32.233922 3.80323
2003-06-18 11:20:57 51°19.9 2°47.67 18.979534 4.325949 32.232554 3.600973
2003-06-18 11:21:57 51°19.91 2°47.64 19.108011 4.32616 32.235994 3.432426
2003-06-18 11:22:57 51°19.91 2°47.61 19.043556 4.325949 32.235923 3.398717
2003-06-18 11:23:57 51°19.92 2°47.59 18.84576 4.326477 32.238067 3.365007
2003-06-18 11:24:57 51°19.93 2°47.62 19.001661 4.332068 32.325155 3.836939
2003-06-18 11:25:57 51°19.91 2°47.67 18.848845 4.32732 32.242283 3.297589
2003-06-18 11:26:57 51°19.9 2°47.69 19.012989 4.327004 32.239088 3.432426
2003-06-18 11:27:57 51°19.87 2°47.7 19.116986 4.326055 32.231748 3.23017
2003-06-18 11:28:57 51°19.85 2°47.7 18.942407 4.325527 32.226236 3.331298
2003-06-18 11:29:57 51°19.83 2°47.7 18.563562 4.327532 32.258086 3.668392
2003-06-18 11:30:57 51°19.82 2°47.7 18.714036 4.328904 32.312305 3.904358
2003-06-18 11:31:57 51°19.82 2°47.71 18.75524 4.325527 32.238026 3.331298
2003-06-18 11:32:57 51°19.82 2°47.71 18.998541 4.325316 32.214942 3.19646
2003-06-18 11:33:57 51°19.83 2°47.71 18.794854 4.325843 32.215965 3.297589
2003-06-18 11:34:57 51°19.84 2°47.71 18.954114 4.326265 32.22228 3.567264
2003-06-18 11:35:57 51°19.86 2°47.69 18.850531 4.324156 32.211457 3.870648
2003-06-18 11:36:57 51°19.87 2°47.67 19.181374 4.325316 32.219991 4.174033
2003-06-18 11:37:57 51°19.89 2°47.66 18.93078 4.326582 32.233892 4.376289
2003-06-18 11:38:57 51°19.91 2°47.64 18.990988 4.329219 32.243487 4.207742
2003-06-18 11:39:57 51°19.92 2°47.63 18.987376 4.328481 32.247448 3.836939
2003-06-18 11:40:57 51°19.93 2°47.63 19.020457 4.326371 32.232697 3.432426
2003-06-18 11:41:57 51°19.95 2°47.63 18.97785 4.325738 32.224063 3.23017
2003-06-18 11:42:57 51°19.96 2°47.64 18.737443 4.327004 32.245827 3.19646
2003-06-18 11:43:57 51°19.96 2°47.66 18.59379 4.335022 32.413691 3.702101
2003-06-18 11:44:57 51°19.94 2°47.68 18.81992 4.32922 32.342042 3.263879
2003-06-18 11:45:57 51°19.88 2°47.69 18.887913 4.328903 32.292579 3.297589
2003-06-18 11:46:57 51°19.76 2°47.56 18.919973 4.329325 32.2899 3.129042
2003-06-18 11:47:57 51°19.59 2°47.31 18.606423 4.339559 32.506739 3.870648
2003-06-18 11:48:57 51°19.4 2°47.04 18.970911 4.331225 32.388765 3.600973
2003-06-18 11:49:57 51°19.21 2°46.77 18.915453 4.33154 32.281904 3.297589
2003-06-18 11:50:57 51°19.02 2°46.5 18.92322 4.337974 32.334358 3.162751
2003-06-18 11:51:57 51°18.83 2°46.23 18.700352 4.349578 32.549568 3.23017
2003-06-18 11:52:57 51°18.64 2°45.96 19.294605 4.350528 32.59744 3.19646
2003-06-18 11:53:57 51°18.45 2°45.69 19.263084 4.349576 32.432141 3.263879
2003-06-18 11:54:57 51°18.27 2°45.41 19.017092 4.362129 32.548097 3.398717
2003-06-18 11:55:57 51°18.14 2°45.13 18.765166 4.377213 32.702999 3.735811
2003-06-18 11:56:57 51°18 2°44.88 18.742593 4.377636 32.770584 3.129042
2003-06-18 11:57:57 51°17.87 2°44.62 18.752521 4.377426 32.830852 3.162751
2003-06-18 11:58:57 51°17.77 2°44.39 18.942078 4.380064 32.904892 3.027913
2003-06-18 11:59:57 51°17.67 2°44.34 18.570501 4.383228 32.892766 2.589691
2003-06-18 12:00:57 51°17.61 2°44.39 18.655197 4.385128 32.944529 2.454853
2003-06-18 12:01:57 51°17.59 2°44.44 18.787773 4.386076 32.884939 2.454853
2003-06-18 12:02:57 51°17.59 2°44.47 19.018652 4.390927 32.852532 2.555982
2003-06-18 12:03:57 51°17.59 2°44.48 18.760677 4.394407 32.852951 2.690819
2003-06-18 12:04:57 51°17.58 2°44.49 19.014056 4.397255 32.856113 2.926785
2003-06-18 12:05:57 51°17.58 2°44.49 18.912617 4.396622 32.853118 3.095332
2003-06-18 12:06:57 51°17.58 2°44.49 19.119117 4.395146 32.856256 2.893076
2003-06-18 12:07:57 51°17.58 2°44.48 18.649793 4.393036 32.837477 2.825657
2003-06-18 12:08:57 51°17.58 2°44.47 18.813048 4.394724 32.852156 2.926785
2003-06-18 12:09:57 51°17.57 2°44.45 18.837161 4.393247 32.865628 2.859366
2003-06-18 12:10:57 51°17.57 2°44.44 18.83675 4.391666 32.884569 3.027913
2003-06-18 12:11:57 51°17.56 2°44.42 18.685468 4.39156 32.868739 3.095332
2003-06-18 12:12:57 51°17.56 2°44.41 19.026284 4.392509 32.886458 3.19646
2003-06-18 12:13:57 51°17.55 2°44.4 18.924535 4.390083 32.877648 2.994204
2003-06-18 12:14:57 51°17.54 2°44.39 18.678541 4.391454 32.871305 3.061623
2003-06-18 12:15:57 51°17.54 2°44.37 19.006997 4.390716 32.867424 2.893076
2003-06-18 12:16:57 51°17.53 2°44.36 18.858429 4.391876 32.863919 2.791947
2003-06-18 12:17:57 51°17.52 2°44.35 19.026489 4.392087 32.868557 2.690819
2003-06-18 12:18:57 51°17.52 2°44.33 19.089608 4.393458 32.874859 2.825657
2003-06-18 12:19:57 51°17.52 2°44.32 19.062669 4.391244 32.891393 3.129042
2003-06-18 12:20:57 51°17.52 2°44.3 18.711934 4.386603 32.88648 3.19646
2003-06-18 12:21:57 51°17.52 2°44.28 18.615008 4.386708 32.8793 3.162751
2003-06-18 12:22:57 51°17.52 2°44.25 18.804486 4.385759 32.873647 3.095332
2003-06-18 12:23:57 51°17.53 2°44.23 18.920384 4.38502 32.830088 3.095332
2003-06-18 12:24:57 51°17.53 2°44.21 18.898683 4.384493 32.844057 3.027913
2003-06-18 12:25:57 51°17.54 2°44.18 18.652433 4.383649 32.838714 3.19646
2003-06-18 12:26:57 51°17.54 2°44.16 18.826463 4.382805 32.837395 3.162751
2003-06-18 12:27:57 51°17.58 2°44.14 18.940435 4.383016 32.815034 3.095332
2003-06-18 12:28:57 51°17.6 2°44.23 18.778509 4.379747 32.869328 3.23017
2003-06-18 12:29:57 51°17.53 2°44.35 18.873604 4.378164 32.809435 2.825657
2003-06-18 12:30:57 51°17.39 2°44.5 18.741522 4.385547 32.814989 2.960494
2003-06-18 12:31:57 51°17.22 2°44.69 19.054713 4.383649 32.851365 3.162751
2003-06-18 12:32:57 51°17.03 2°44.89 18.997844 4.394618 32.843822 3.499845
2003-06-18 12:33:57 51°16.84 2°45.1 18.956126 4.429533 33.046986 5.117896
2003-06-18 12:34:57 51°16.65 2°45.3 18.984953 4.442508 33.158744 5.657247
2003-06-18 12:35:57 51°16.47 2°45.52 19.462274 4.455482 33.144313 5.45499
2003-06-18 12:36:57 51°16.28 2°45.74 19.21862 4.458331 33.208868 5.792084
2003-06-18 12:37:57 51°16.09 2°45.97 19.183053 4.459808 33.211957 6.162888
2003-06-18 12:38:57 51°16.01 2°46.28 19.271385 4.460651 33.178714 5.724665
2003-06-18 12:39:57 51°16 2°46.64 19.510292 4.455586 33.102763 6.365144
2003-06-18 12:40:57 51°15.97 2°46.99 19.229503 4.452 33.072956 6.971913
2003-06-18 12:41:57 51°15.94 2°47.35 19.378796 4.457169 33.123363 6.803366
2003-06-18 12:42:57 51°15.91 2°47.71 19.201186 4.458435 33.151669 7.039332
2003-06-18 12:43:57 51°15.87 2°48.07 19.271834 4.454532 33.123216 7.275298
2003-06-18 12:44:57 51°15.84 2°48.43 19.378347 4.456114 33.130643 7.983195
2003-06-18 12:45:57 51°15.81 2°48.78 19.229094 4.45105 33.045635 8.455127
2003-06-18 12:46:57 51°15.78 2°49.14 19.341553 4.452209 32.983461 10.275435
2003-06-18 12:47:57 51°15.75 2°49.49 19.339552 4.456218 33.033197 10.54511
2003-06-18 12:48:57 51°15.72 2°49.86 19.378265 4.45991 33.064386 10.376563
2003-06-18 12:49:57 51°15.72 2°50.22 19.139971 4.462231 33.091055 9.163024
2003-06-18 12:50:57 51°15.7 2°50.58 19.141036 4.465185 33.123563 10.376563
2003-06-18 12:51:57 51°15.64 2°50.93 19.464516 4.475102 33.203011 10.275435
2003-06-18 12:52:57 51°15.58 2°51.27 19.650245 4.451891 32.878293 8.050614
2003-06-18 12:53:57 51°15.51 2°51.61 19.666998 4.404419 32.407547 7.983195
2003-06-18 12:54:57 51°15.43 2°51.94 19.48433 4.373195 32.121208 8.792221
2003-06-18 12:55:57 51°15.33 2°52.25 19.654718 4.338492 31.851275 10.241725
2003-06-18 12:56:57 51°15.22 2°52.57 19.614733 4.325729 31.710313 10.949623
2003-06-18 12:57:57 51°15.12 2°52.88 19.604968 4.332691 31.820033 14.050888
2003-06-18 12:58:57 51°15.01 2°53.2 19.424872 4.341342 31.956083 12.533965
2003-06-18 12:59:57 51°14.89 2°53.51 19.850894 4.352522 32.026612 10.54511
2003-06-18 13:00:57 51°14.77 2°53.82 19.528545 4.362222 31.886272 8.185452
2003-06-18 13:01:57 51°14.67 2°54.15 19.669112 4.36507 31.905734 7.241589
2003-06-18 13:02:57 51°14.58 2°54.48 19.515385 4.355261 31.861932 10.477691
2003-06-18 13:03:57 51°14.48 2°54.77 19.718207 4.343976 31.821718 10.882204
2003-06-18 13:04:57 51°14.39 2°55.01 19.73141 4.346926 31.70806 11.387845
2003-06-18 13:05:57 51°14.29 2°55.21 20.545663 4.255586 30.889771 14.185725